Megalochari Xiv — SVA5420 — position and weather

sailwx.info

Track history (hours):
 
Tides and Currents Weather Stations Pressure Air Temp Water Temp Dewpoint Dewpoint Depression Visibility Wind Speed Wind Dir Waves Ship Positions

Megalochari Xiv

Last reported at 2017-Sep-21 20:33 UTC. Time now 2017-Sep-23 05:59 UTC.
Position N 37°58' E 023°37'.

Length 29 m; draft 4.2 m.

Type: Tug. MMSI: 239814500.

Date/timePositionNaut miles runAvg speedWind from/ knotsBaromVisibWave heightAir tempDewpointWater temp
2017-Sep-21 20:33N 37°58' E 023°37'0 0.0
2017-Sep-21 20:31N 37°58' E 023°37'3 6.0
2017-Sep-21 20:00N 37°58' E 023°33'4 8.9
2017-Sep-21 19:30N 38°02' E 023°32'0 0.0
2017-Sep-21 19:00N 38°02' E 023°32'0 0.0
2017-Sep-21 18:30N 38°02' E 023°32'0 0.0
2017-Sep-21 18:00N 38°02' E 023°32'0 0.0
2017-Sep-21 17:30N 38°02' E 023°32'0 0.0
2017-Sep-21 17:00N 38°02' E 023°32'0 0.0
2017-Sep-21 16:30N 38°02' E 023°32'2 3.4
2017-Sep-21 16:00N 38°02' E 023°30'0 0.6
2017-Sep-21 15:30N 38°02' E 023°30'1 1.3
2017-Sep-21 15:00N 38°01' E 023°31'2 3.9
2017-Sep-21 14:30N 38°00' E 023°33'2 4.3
2017-Sep-21 14:00N 37°58' E 023°33'1 1.6
2017-Sep-21 13:30N 37°58' E 023°33'0 0.7
2017-Sep-21 13:00N 37°58' E 023°34'0 0.0
2017-Sep-21 12:30N 37°58' E 023°34'0 0.0
2017-Sep-21 12:00N 37°58' E 023°34'0 0.0
2017-Sep-21 11:30N 37°58' E 023°34'0 0.0
2017-Sep-21 11:00N 37°58' E 023°34'0 0.0
2017-Sep-21 10:30N 37°58' E 023°34'0 0.0
2017-Sep-21 10:00N 37°58' E 023°34'0 0.0
2017-Sep-21 09:30N 37°58' E 023°34'0 0.0
2017-Sep-21 09:00N 37°58' E 023°34'0 0.0
2017-Sep-21 08:30N 37°58' E 023°34'0 0.0
2017-Sep-21 08:00N 37°58' E 023°34'0 0.0
2017-Sep-21 07:30N 37°58' E 023°34'0 0.0
2017-Sep-21 07:00N 37°58' E 023°34'0 0.0
2017-Sep-21 06:30N 37°58' E 023°34'2 4.8
2017-Sep-21 06:00N 37°58' E 023°37'0 0.0
2017-Sep-21 05:30N 37°58' E 023°37'0 0.0
2017-Sep-21 05:00N 37°58' E 023°37'0 0.0
2017-Sep-21 04:30N 37°58' E 023°37'0 0.0
2017-Sep-21 04:00N 37°58' E 023°37'0 0.0
2017-Sep-21 03:31N 37°58' E 023°37'0 0.0
2017-Sep-21 03:00N 37°58' E 023°37'0 0.0
2017-Sep-20 11:35N 37°58' E 023°37'0 0.0
2017-Sep-20 11:30N 37°58' E 023°37'0 0.0
2017-Sep-20 11:00N 37°58' E 023°37'0 0.0
2017-Sep-20 10:30N 37°58' E 023°37'0 0.0
2017-Sep-20 10:00N 37°58' E 023°37'0 0.0
2017-Sep-20 09:30N 37°58' E 023°37'0 0.0
2017-Sep-20 09:00N 37°58' E 023°37'0 0.0
2017-Sep-20 08:30N 37°58' E 023°37'0 0.0
2017-Sep-20 08:00N 37°58' E 023°37'0 0.0
2017-Sep-20 07:30N 37°58' E 023°37'0 0.0
2017-Sep-20 07:00N 37°58' E 023°37'0 0.0
2017-Sep-20 06:30N 37°58' E 023°37'0 0.0
2017-Sep-20 06:00N 37°58' E 023°37'0 0.0
2017-Sep-20 05:30N 37°58' E 023°37'0 0.0
2017-Sep-20 05:00N 37°58' E 023°37'0 0.0
2017-Sep-20 04:30N 37°58' E 023°37'0 0.0
2017-Sep-20 04:00N 37°58' E 023°37'0 0.0
2017-Sep-20 03:30N 37°58' E 023°37'0 0.0
2017-Sep-19 11:01N 37°58' E 023°37'0 0.0
2017-Sep-19 11:01N 37°58' E 023°37'0 0.7
2017-Sep-19 10:30N 37°57' E 023°36'2 4.6
2017-Sep-19 10:00N 37°58' E 023°33'0 0.1
2017-Sep-19 09:30N 37°58' E 023°33'1 2.9
2017-Sep-19 09:01N 37°57' E 023°35'1 2.8
2017-Sep-19 08:31N 37°58' E 023°37'0 0.0
2017-Sep-19 08:00N 37°58' E 023°37'0 0.0
2017-Sep-19 07:30N 37°58' E 023°37'0 0.0
2017-Sep-19 07:00N 37°58' E 023°37'0 0.0
2017-Sep-19 06:30N 37°58' E 023°37'0 0.0
2017-Sep-19 06:00N 37°58' E 023°37'0 0.0
2017-Sep-19 05:30N 37°58' E 023°37'0 0.0
2017-Sep-19 05:01N 37°58' E 023°37'0 0.0
2017-Sep-18 10:58N 37°58' E 023°37'0 0.0
2017-Sep-18 10:30N 37°58' E 023°37'0 0.0
2017-Sep-18 10:00N 37°58' E 023°37'0 0.0
2017-Sep-18 09:30N 37°58' E 023°37'0 0.0
2017-Sep-18 09:00N 37°58' E 023°37'0 0.0
2017-Sep-18 08:31N 37°58' E 023°37'0 0.0
2017-Sep-18 08:00N 37°58' E 023°37'0 0.0
2017-Sep-18 07:31N 37°58' E 023°37'0 0.0
2017-Sep-18 07:00N 37°58' E 023°37'0 0.0
2017-Sep-18 06:30N 37°58' E 023°37'0 0.0
2017-Sep-18 06:01N 37°58' E 023°37'0 0.0
2017-Sep-18 05:31N 37°58' E 023°37'0 0.0
2017-Sep-18 05:01N 37°58' E 023°37'1 2.4
2017-Sep-18 04:30N 37°57' E 023°35'1 1.5
2017-Sep-18 04:01N 37°57' E 023°35'1 2.3
2017-Sep-18 03:30N 37°57' E 023°36'1 0.1
2017-Sep-17 16:48N 37°57' E 023°37'1 5.0
2017-Sep-17 16:30N 37°58' E 023°35'0 0.0
2017-Sep-17 16:00N 37°58' E 023°35'0 0.2
2017-Sep-17 15:30N 37°57' E 023°35'0 0.0
2017-Sep-17 15:00N 37°57' E 023°35'0 0.0
2017-Sep-17 14:30N 37°57' E 023°35'0 0.0
2017-Sep-17 14:00N 37°57' E 023°35'0 0.0
2017-Sep-17 13:30N 37°57' E 023°35'0 0.0
2017-Sep-17 13:00N 37°57' E 023°35'0 0.0
2017-Sep-17 12:30N 37°57' E 023°35'0 0.0
2017-Sep-17 12:00N 37°57' E 023°35'0 0.0
2017-Sep-17 11:30N 37°57' E 023°35'0 0.0
2017-Sep-17 11:00N 37°57' E 023°35'0 0.0
2017-Sep-17 10:30N 37°57' E 023°35'0 0.0
2017-Sep-17 10:00N 37°57' E 023°35'0 0.0
2017-Sep-17 09:30N 37°57' E 023°35'0 0.0
2017-Sep-17 09:00N 37°57' E 023°35'0 0.9
2017-Sep-17 08:30N 37°57' E 023°35'0 0.9
2017-Sep-17 08:00N 37°57' E 023°35'0 0.0
2017-Sep-17 07:30N 37°57' E 023°35'0 0.0
2017-Sep-17 07:00N 37°57' E 023°35'0 0.0
2017-Sep-17 06:30N 37°57' E 023°35'0 0.0
2017-Sep-17 06:00N 37°57' E 023°35'0 0.0
2017-Sep-17 05:30N 37°57' E 023°35'0 0.0
2017-Sep-17 05:00N 37°57' E 023°35'0 0.0
2017-Sep-17 04:30N 37°57' E 023°35'0 0.0
2017-Sep-17 04:00N 37°57' E 023°35'0 0.0
2017-Sep-17 03:30N 37°57' E 023°35'0 0.0
2017-Sep-17 03:00N 37°57' E 023°35'0 0.0
2017-Sep-17 02:30N 37°57' E 023°35'0 0.0
2017-Sep-17 02:00N 37°57' E 023°35'0 0.0
2017-Sep-17 01:30N 37°57' E 023°35'0 0.0
2017-Sep-17 01:00N 37°57' E 023°35'0 0.0
2017-Sep-17 00:30N 37°57' E 023°35'0 0.0
2017-Sep-17 00:00N 37°57' E 023°35'0 0.0
2017-Sep-16 23:30N 37°57' E 023°35'0 0.0
2017-Sep-16 23:00N 37°57' E 023°35'0 0.0
2017-Sep-16 22:30N 37°57' E 023°35'0 0.0
2017-Sep-16 22:00N 37°57' E 023°35'0 0.0
2017-Sep-16 21:30N 37°57' E 023°35'0 0.0
2017-Sep-16 21:00N 37°57' E 023°35'0 0.0
2017-Sep-16 20:30N 37°57' E 023°35'0 0.0
2017-Sep-16 20:00N 37°57' E 023°35'0 0.0
2017-Sep-16 19:30N 37°57' E 023°35'0 0.0
2017-Sep-16 19:00N 37°57' E 023°35'0 0.6
2017-Sep-16 18:30N 37°58' E 023°34'0 0.1
2017-Sep-16 18:00N 37°58' E 023°34'0 0.0
2017-Sep-16 17:30N 37°58' E 023°34'1 2.1
2017-Sep-16 17:00N 37°57' E 023°35'1 1.7
2017-Sep-16 16:30N 37°57' E 023°36'1 2.6
2017-Sep-16 16:00N 37°56' E 023°38'3 5.4
2017-Sep-16 15:30N 37°57' E 023°35'0 0.0
2017-Sep-16 15:00N 37°57' E 023°35'0 0.0
2017-Sep-16 14:30N 37°57' E 023°35'0 0.0
2017-Sep-16 14:00N 37°57' E 023°35'0 0.0
2017-Sep-16 13:30N 37°57' E 023°35'0 0.0
2017-Sep-16 13:00N 37°57' E 023°35'0 0.0
2017-Sep-16 12:30N 37°57' E 023°35'0 0.0
2017-Sep-16 12:00N 37°57' E 023°35'0 0.0
2017-Sep-16 11:30N 37°57' E 023°35'0 0.0
2017-Sep-16 11:00N 37°57' E 023°35'0 0.0
2017-Sep-16 10:30N 37°57' E 023°35'0 0.0
2017-Sep-16 10:00N 37°57' E 023°35'0 0.0
2017-Sep-16 09:30N 37°57' E 023°35'0 0.1
2017-Sep-16 09:00N 37°57' E 023°35'0 0.0
2017-Sep-16 08:30N 37°57' E 023°35'1 1.7
2017-Sep-16 08:00N 37°57' E 023°36'1 1.6
2017-Sep-16 07:30N 37°57' E 023°37'0 0.0
2017-Sep-15 14:54N 37°58' E 023°37'2 4.0
2017-Sep-15 14:30N 37°57' E 023°35'1 1.4
2017-Sep-15 14:00N 37°57' E 023°35'1 1.8
2017-Sep-15 13:30N 37°57' E 023°36'1 1.4
2017-Sep-15 13:00N 37°58' E 023°37'0 0.0
2017-Sep-15 12:30N 37°58' E 023°37'0 0.0
2017-Sep-15 12:00N 37°58' E 023°37'0 0.0
2017-Sep-15 11:30N 37°58' E 023°37'0 0.0
2017-Sep-15 11:00N 37°58' E 023°37'0 0.0
2017-Sep-15 10:30N 37°58' E 023°37'0 0.0
2017-Sep-15 10:00N 37°58' E 023°37'0 0.3
2017-Sep-15 09:30N 37°57' E 023°37'1 3.0
2017-Sep-15 09:00N 37°57' E 023°35'4 7.5
2017-Sep-15 08:30N 38°01' E 023°33'1 1.4
2017-Sep-15 08:00N 38°01' E 023°33'1 1.6
2017-Sep-15 07:30N 38°00' E 023°33'0 0.2
2017-Sep-15 07:00N 38°00' E 023°33'2 4.1
2017-Sep-15 06:31N 37°58' E 023°33'2 4.8
2017-Sep-15 06:00N 37°57' E 023°35'1 0.1
2017-Sep-14 15:38N 37°57' E 023°36'1 8.2
2017-Sep-14 15:30N 37°57' E 023°35'4 7.5
2017-Sep-14 15:00N 38°00' E 023°33'1 2.8
2017-Sep-14 14:31N 38°02' E 023°32'1 1.9
2017-Sep-14 14:00N 38°01' E 023°33'0 0.1
2017-Sep-14 13:30N 38°01' E 023°33'1 2.5
2017-Sep-14 13:00N 37°60' E 023°33'3 6.3
2017-Sep-14 12:30N 37°57' E 023°35'1 2.4
2017-Sep-14 12:00N 37°58' E 023°37'0 0.0
2017-Sep-14 11:30N 37°58' E 023°37'0 0.0
2017-Sep-14 11:00N 37°58' E 023°37'0 0.0
2017-Sep-14 10:30N 37°58' E 023°37'0 0.0
2017-Sep-14 10:00N 37°58' E 023°37'2 4.1
2017-Sep-14 09:30N 37°56' E 023°37'4 8.7
2017-Sep-14 09:00N 37°52' E 023°41'4 8.6
2017-Sep-14 08:30N 37°48' E 023°43'4 8.5
2017-Sep-14 08:00N 37°45' E 023°46'  
Track history (hours):
 
Tides and Currents Weather Stations Pressure Air Temp Water Temp Dewpoint Dewpoint Depression Visibility Wind Speed Wind Dir Waves Ship Positions

Megalochari Xiv

Last reported at 2017-Sep-21 20:33 UTC. Time now 2017-Sep-23 05:59 UTC.
Position N 37°58' E 023°37'.

Length 29 m; draft 4.2 m.

Type: Tug. MMSI: 239814500.

Date/timePositionNaut miles runAvg speedWind from/ knotsBaromVisibWave heightAir tempDewpointWater temp
2017-Sep-21 20:33N 37°58' E 023°37'0 0.0
2017-Sep-21 20:31N 37°58' E 023°37'3 6.0
2017-Sep-21 20:00N 37°58' E 023°33'4 8.9
2017-Sep-21 19:30N 38°02' E 023°32'0 0.0
2017-Sep-21 19:00N 38°02' E 023°32'0 0.0
2017-Sep-21 18:30N 38°02' E 023°32'0 0.0
2017-Sep-21 18:00N 38°02' E 023°32'0 0.0
2017-Sep-21 17:30N 38°02' E 023°32'0 0.0
2017-Sep-21 17:00N 38°02' E 023°32'0 0.0
2017-Sep-21 16:30N 38°02' E 023°32'2 3.4
2017-Sep-21 16:00N 38°02' E 023°30'0 0.6
2017-Sep-21 15:30N 38°02' E 023°30'1 1.3
2017-Sep-21 15:00N 38°01' E 023°31'2 3.9
2017-Sep-21 14:30N 38°00' E 023°33'2 4.3
2017-Sep-21 14:00N 37°58' E 023°33'1 1.6
2017-Sep-21 13:30N 37°58' E 023°33'0 0.7
2017-Sep-21 13:00N 37°58' E 023°34'0 0.0
2017-Sep-21 12:30N 37°58' E 023°34'0 0.0
2017-Sep-21 12:00N 37°58' E 023°34'0 0.0
2017-Sep-21 11:30N 37°58' E 023°34'0 0.0
2017-Sep-21 11:00N 37°58' E 023°34'0 0.0
2017-Sep-21 10:30N 37°58' E 023°34'0 0.0
2017-Sep-21 10:00N 37°58' E 023°34'0 0.0
2017-Sep-21 09:30N 37°58' E 023°34'0 0.0
2017-Sep-21 09:00N 37°58' E 023°34'0 0.0
2017-Sep-21 08:30N 37°58' E 023°34'0 0.0
2017-Sep-21 08:00N 37°58' E 023°34'0 0.0
2017-Sep-21 07:30N 37°58' E 023°34'0 0.0
2017-Sep-21 07:00N 37°58' E 023°34'0 0.0
2017-Sep-21 06:30N 37°58' E 023°34'2 4.8
2017-Sep-21 06:00N 37°58' E 023°37'0 0.0
2017-Sep-21 05:30N 37°58' E 023°37'0 0.0
2017-Sep-21 05:00N 37°58' E 023°37'0 0.0
2017-Sep-21 04:30N 37°58' E 023°37'0 0.0
2017-Sep-21 04:00N 37°58' E 023°37'0 0.0
2017-Sep-21 03:31N 37°58' E 023°37'0 0.0
2017-Sep-21 03:00N 37°58' E 023°37'0 0.0
2017-Sep-20 11:35N 37°58' E 023°37'0 0.0
2017-Sep-20 11:30N 37°58' E 023°37'0 0.0
2017-Sep-20 11:00N 37°58' E 023°37'0 0.0
2017-Sep-20 10:30N 37°58' E 023°37'0 0.0
2017-Sep-20 10:00N 37°58' E 023°37'0 0.0
2017-Sep-20 09:30N 37°58' E 023°37'0 0.0
2017-Sep-20 09:00N 37°58' E 023°37'0 0.0
2017-Sep-20 08:30N 37°58' E 023°37'0 0.0
2017-Sep-20 08:00N 37°58' E 023°37'0 0.0
2017-Sep-20 07:30N 37°58' E 023°37'0 0.0
2017-Sep-20 07:00N 37°58' E 023°37'0 0.0
2017-Sep-20 06:30N 37°58' E 023°37'0 0.0
2017-Sep-20 06:00N 37°58' E 023°37'0 0.0
2017-Sep-20 05:30N 37°58' E 023°37'0 0.0
2017-Sep-20 05:00N 37°58' E 023°37'0 0.0
2017-Sep-20 04:30N 37°58' E 023°37'0 0.0
2017-Sep-20 04:00N 37°58' E 023°37'0 0.0
2017-Sep-20 03:30N 37°58' E 023°37'0 0.0
2017-Sep-19 11:01N 37°58' E 023°37'0 0.0
2017-Sep-19 11:01N 37°58' E 023°37'0 0.7
2017-Sep-19 10:30N 37°57' E 023°36'2 4.6
2017-Sep-19 10:00N 37°58' E 023°33'0 0.1
2017-Sep-19 09:30N 37°58' E 023°33'1 2.9
2017-Sep-19 09:01N 37°57' E 023°35'1 2.8
2017-Sep-19 08:31N 37°58' E 023°37'0 0.0
2017-Sep-19 08:00N 37°58' E 023°37'0 0.0
2017-Sep-19 07:30N 37°58' E 023°37'0 0.0
2017-Sep-19 07:00N 37°58' E 023°37'0 0.0
2017-Sep-19 06:30N 37°58' E 023°37'0 0.0
2017-Sep-19 06:00N 37°58' E 023°37'0 0.0
2017-Sep-19 05:30N 37°58' E 023°37'0 0.0
2017-Sep-19 05:01N 37°58' E 023°37'0 0.0
2017-Sep-18 10:58N 37°58' E 023°37'0 0.0
2017-Sep-18 10:30N 37°58' E 023°37'0 0.0
2017-Sep-18 10:00N 37°58' E 023°37'0 0.0
2017-Sep-18 09:30N 37°58' E 023°37'0 0.0
2017-Sep-18 09:00N 37°58' E 023°37'0 0.0
2017-Sep-18 08:31N 37°58' E 023°37'0 0.0
2017-Sep-18 08:00N 37°58' E 023°37'0 0.0
2017-Sep-18 07:31N 37°58' E 023°37'0 0.0
2017-Sep-18 07:00N 37°58' E 023°37'0 0.0
2017-Sep-18 06:30N 37°58' E 023°37'0 0.0
2017-Sep-18 06:01N 37°58' E 023°37'0 0.0
2017-Sep-18 05:31N 37°58' E 023°37'0 0.0
2017-Sep-18 05:01N 37°58' E 023°37'1 2.4
2017-Sep-18 04:30N 37°57' E 023°35'1 1.5
2017-Sep-18 04:01N 37°57' E 023°35'1 2.3
2017-Sep-18 03:30N 37°57' E 023°36'1 0.1
2017-Sep-17 16:48N 37°57' E 023°37'1 5.0
2017-Sep-17 16:30N 37°58' E 023°35'0 0.0
2017-Sep-17 16:00N 37°58' E 023°35'0 0.2
2017-Sep-17 15:30N 37°57' E 023°35'0 0.0
2017-Sep-17 15:00N 37°57' E 023°35'0 0.0
2017-Sep-17 14:30N 37°57' E 023°35'0 0.0
2017-Sep-17 14:00N 37°57' E 023°35'0 0.0
2017-Sep-17 13:30N 37°57' E 023°35'0 0.0
2017-Sep-17 13:00N 37°57' E 023°35'0 0.0
2017-Sep-17 12:30N 37°57' E 023°35'0 0.0
2017-Sep-17 12:00N 37°57' E 023°35'0 0.0
2017-Sep-17 11:30N 37°57' E 023°35'0 0.0
2017-Sep-17 11:00N 37°57' E 023°35'0 0.0
2017-Sep-17 10:30N 37°57' E 023°35'0 0.0
2017-Sep-17 10:00N 37°57' E 023°35'0 0.0
2017-Sep-17 09:30N 37°57' E 023°35'0 0.0
2017-Sep-17 09:00N 37°57' E 023°35'0 0.9
2017-Sep-17 08:30N 37°57' E 023°35'0 0.9
2017-Sep-17 08:00N 37°57' E 023°35'0 0.0
2017-Sep-17 07:30N 37°57' E 023°35'0 0.0
2017-Sep-17 07:00N 37°57' E 023°35'0 0.0
2017-Sep-17 06:30N 37°57' E 023°35'0 0.0
2017-Sep-17 06:00N 37°57' E 023°35'0 0.0
2017-Sep-17 05:30N 37°57' E 023°35'0 0.0
2017-Sep-17 05:00N 37°57' E 023°35'0 0.0
2017-Sep-17 04:30N 37°57' E 023°35'0 0.0
2017-Sep-17 04:00N 37°57' E 023°35'0 0.0
2017-Sep-17 03:30N 37°57' E 023°35'0 0.0
2017-Sep-17 03:00N 37°57' E 023°35'0 0.0
2017-Sep-17 02:30N 37°57' E 023°35'0 0.0
2017-Sep-17 02:00N 37°57' E 023°35'0 0.0
2017-Sep-17 01:30N 37°57' E 023°35'0 0.0
2017-Sep-17 01:00N 37°57' E 023°35'0 0.0
2017-Sep-17 00:30N 37°57' E 023°35'0 0.0
2017-Sep-17 00:00N 37°57' E 023°35'0 0.0
2017-Sep-16 23:30N 37°57' E 023°35'0 0.0
2017-Sep-16 23:00N 37°57' E 023°35'0 0.0
2017-Sep-16 22:30N 37°57' E 023°35'0 0.0
2017-Sep-16 22:00N 37°57' E 023°35'0 0.0
2017-Sep-16 21:30N 37°57' E 023°35'0 0.0
2017-Sep-16 21:00N 37°57' E 023°35'0 0.0
2017-Sep-16 20:30N 37°57' E 023°35'0 0.0
2017-Sep-16 20:00N 37°57' E 023°35'0 0.0
2017-Sep-16 19:30N 37°57' E 023°35'0 0.0
2017-Sep-16 19:00N 37°57' E 023°35'0 0.6
2017-Sep-16 18:30N 37°58' E 023°34'0 0.1
2017-Sep-16 18:00N 37°58' E 023°34'0 0.0
2017-Sep-16 17:30N 37°58' E 023°34'1 2.1
2017-Sep-16 17:00N 37°57' E 023°35'1 1.7
2017-Sep-16 16:30N 37°57' E 023°36'1 2.6
2017-Sep-16 16:00N 37°56' E 023°38'3 5.4
2017-Sep-16 15:30N 37°57' E 023°35'0 0.0
2017-Sep-16 15:00N 37°57' E 023°35'0 0.0
2017-Sep-16 14:30N 37°57' E 023°35'0 0.0
2017-Sep-16 14:00N 37°57' E 023°35'0 0.0
2017-Sep-16 13:30N 37°57' E 023°35'0 0.0
2017-Sep-16 13:00N 37°57' E 023°35'0 0.0
2017-Sep-16 12:30N 37°57' E 023°35'0 0.0
2017-Sep-16 12:00N 37°57' E 023°35'0 0.0
2017-Sep-16 11:30N 37°57' E 023°35'0 0.0
2017-Sep-16 11:00N 37°57' E 023°35'0 0.0
2017-Sep-16 10:30N 37°57' E 023°35'0 0.0
2017-Sep-16 10:00N 37°57' E 023°35'0 0.0
2017-Sep-16 09:30N 37°57' E 023°35'0 0.1
2017-Sep-16 09:00N 37°57' E 023°35'0 0.0
2017-Sep-16 08:30N 37°57' E 023°35'1 1.7
2017-Sep-16 08:00N 37°57' E 023°36'1 1.6
2017-Sep-16 07:30N 37°57' E 023°37'0 0.0
2017-Sep-15 14:54N 37°58' E 023°37'2 4.0
2017-Sep-15 14:30N 37°57' E 023°35'1 1.4
2017-Sep-15 14:00N 37°57' E 023°35'1 1.8
2017-Sep-15 13:30N 37°57' E 023°36'1 1.4
2017-Sep-15 13:00N 37°58' E 023°37'0 0.0
2017-Sep-15 12:30N 37°58' E 023°37'0 0.0
2017-Sep-15 12:00N 37°58' E 023°37'0 0.0
2017-Sep-15 11:30N 37°58' E 023°37'0 0.0
2017-Sep-15 11:00N 37°58' E 023°37'0 0.0
2017-Sep-15 10:30N 37°58' E 023°37'0 0.0
2017-Sep-15 10:00N 37°58' E 023°37'0 0.3
2017-Sep-15 09:30N 37°57' E 023°37'1 3.0
2017-Sep-15 09:00N 37°57' E 023°35'4 7.5
2017-Sep-15 08:30N 38°01' E 023°33'1 1.4
2017-Sep-15 08:00N 38°01' E 023°33'1 1.6
2017-Sep-15 07:30N 38°00' E 023°33'0 0.2
2017-Sep-15 07:00N 38°00' E 023°33'2 4.1
2017-Sep-15 06:31N 37°58' E 023°33'2 4.8
2017-Sep-15 06:00N 37°57' E 023°35'1 0.1
2017-Sep-14 15:38N 37°57' E 023°36'1 8.2
2017-Sep-14 15:30N 37°57' E 023°35'4 7.5
2017-Sep-14 15:00N 38°00' E 023°33'1 2.8
2017-Sep-14 14:31N 38°02' E 023°32'1 1.9
2017-Sep-14 14:00N 38°01' E 023°33'0 0.1
2017-Sep-14 13:30N 38°01' E 023°33'1 2.5
2017-Sep-14 13:00N 37°60' E 023°33'3 6.3
2017-Sep-14 12:30N 37°57' E 023°35'1 2.4
2017-Sep-14 12:00N 37°58' E 023°37'0 0.0
2017-Sep-14 11:30N 37°58' E 023°37'0 0.0
2017-Sep-14 11:00N 37°58' E 023°37'0 0.0
2017-Sep-14 10:30N 37°58' E 023°37'0 0.0
2017-Sep-14 10:00N 37°58' E 023°37'2 4.1
2017-Sep-14 09:30N 37°56' E 023°37'4 8.7
2017-Sep-14 09:00N 37°52' E 023°41'4 8.6
2017-Sep-14 08:30N 37°48' E 023°43'4 8.5
2017-Sep-14 08:00N 37°45' E 023°46'  

Dump ship's entire track history